Anchorage, AK

8:18 AM AKDT on August 27, 2014 (GMT -0800)
Merrill | Change Station
CLOSE
Current Station
Airport
Location: Anchorage Merrill,
Elevation: 135 ft
Nearby Weather Stations

Elev 135 ft 61.22 °N, 149.85 °W | Updated 5 minutes ago

Light Rain
Light Rain Mist
54 °F
Feels Like 54 °F
N
4
Wind Variable Wind from ENE

Today
High -- | Low -- °F
--% Chance of Precip.
Yesterday
High -- | Low -- °F
Precip. -- in
6:39 AM 9:21 PM
Waxing Crescent, 4% visible
Pressure 29.88 in
Visibility 5.0 miles
Clouds Overcast 3100 ft
Dew Point 51 °F
Humidity 90%
Rainfall 0.28 in
Snow Depth 1 in , 2 in
UV 0 out of 12
Pollen Not available.
Air Quality Not available.
Flu Activity Not available.
SPECI PAMR 271613Z 06003KT 5SM -RA BR OVC031 12/11 A2988 RMK AO2 P0002 T01220106

More Conditions Fewer Conditions

Pressure 29.88 in
Visibility 5.0 miles
Clouds Overcast 3100 ft
Dew Point 51 °F
Humidity 90%
Rainfall 0.28 in
Snow Depth 1 in , 2 in
UV 0 out of 12
Pollen Not available.
Air Quality Not available.
Flu Activity Not available.
SPECI PAMR 271613Z 06003KT 5SM -RA BR OVC031 12/11 A2988 RMK AO2 P0002 T01220106

More Conditions Fewer Conditions

10-Day Weather Forecast

Almanac

Astronomy

Aug. 27, 2014 Rise Set
Actual Time 6:39 AM AKDT 9:21 PM AKDT
Civil Twilight 5:50 AM AKDT 10:09 PM AKDT
Nautical Twilight 4:43 AM AKDT 11:14 PM AKDT
Astronomical Twilight 2:54 AM AKDT 12:56 AM AKDT
Moon 9:32 AM AKDT 9:24 PM AKDT
Length of Visible Light 16h 19m
Length of Day
14h 41m
Tomorrow will be 5m 39s shorter.
Waxing Crescent, 4% of the Moon is Illuminated
Today
Waxing Crescent
Sep 2
First Quarter
Sep 8
Full
Sep 15
Last Quarter
Sep 24
New

Today's Extremes

State Highs State Lows

Community

WunderPhotos

Upload Photos

1,747,721 photos uploaded!

Nearby

Snow Depth

Station Depth Elevation
Point Mackenzie 1 in 200 ft
Indian Pass 2 in 2300 ft
Turnagain Pass 2 in 1880 ft
Summit Creek 0 in 1400 ft
Grandview 18 in 1100 ft

Earthquake Activity

City Distance Mag. Time & Date
No recent earthquake activity has been reported nearby.
Minimum magnitude displayed is 2.5.

Coastal Water Temperatures

Place Temperature
No Stations Reporting

Nearby Weather Stations